createdAt,value
2018-09-27T00:01:44.489Z,54.06
2018-09-27T00:04:10.437Z,53.68
2018-09-27T00:06:36.466Z,53.45
2018-09-27T00:09:02.408Z,54.46
2018-09-27T00:11:28.364Z,53.47
2018-09-27T00:13:54.323Z,54.12
2018-09-27T00:16:20.276Z,53.37
2018-09-27T00:18:46.227Z,54.45
2018-09-27T00:21:12.183Z,54.04
2018-09-27T00:23:38.128Z,53.75
2018-09-27T00:26:04.084Z,54.11
2018-09-27T00:28:30.028Z,54.16
2018-09-27T00:30:55.971Z,53.89
2018-09-27T00:33:21.923Z,53.76
2018-09-27T00:35:47.876Z,53.82
2018-09-27T00:38:13.823Z,54.31
2018-09-27T00:40:39.839Z,53.69
2018-09-27T00:43:05.783Z,54.07
2018-09-27T00:45:31.734Z,54.16
2018-09-27T00:47:57.728Z,53.24
2018-09-27T00:50:23.659Z,54.09
2018-09-27T00:52:49.667Z,53.45
2018-09-27T00:55:15.607Z,53.93
2018-09-27T00:57:41.580Z,53.86
2018-09-27T01:00:07.531Z,53.86
2018-09-27T01:02:33.566Z,54.34
2018-09-27T01:04:59.522Z,53.78
2018-09-27T01:07:25.484Z,53.39
2018-09-27T01:09:51.430Z,53.65
2018-09-27T01:12:17.395Z,53.48
2018-09-27T01:14:43.339Z,53.29
2018-09-27T01:17:09.284Z,53.72
2018-09-27T01:19:35.227Z,53.82
2018-09-27T01:22:01.208Z,53.66
2018-09-27T01:24:27.172Z,53.01
2018-09-27T01:26:53.120Z,53.87
2018-09-27T01:29:19.116Z,54.46
2018-09-27T01:31:45.161Z,53.45
2018-09-27T01:34:11.114Z,53.79
2018-09-27T01:36:37.061Z,53.03
2018-09-27T01:39:03.149Z,53.17
2018-09-27T01:41:29.089Z,53.35
2018-09-27T01:43:55.030Z,54.19
2018-09-27T01:46:20.980Z,53.82
2018-09-27T01:48:46.928Z,54.25
2018-09-27T01:51:12.883Z,53.74
2018-09-27T01:53:38.909Z,53.23
2018-09-27T01:56:04.880Z,53.99
2018-09-27T01:58:30.824Z,54.15
2018-09-27T02:00:56.792Z,53.63
2018-09-27T02:03:22.727Z,53.24
2018-09-27T02:05:48.672Z,53.43
2018-09-27T02:08:14.675Z,53.44
2018-09-27T02:10:40.623Z,53.73
2018-09-27T02:13:06.560Z,54.06
2018-09-27T02:15:32.499Z,53.25
2018-09-27T02:17:58.447Z,53.58
2018-09-27T02:20:24.396Z,53.86
2018-09-27T02:22:50.359Z,53.85
2018-09-27T02:25:16.304Z,53.59
2018-09-27T02:27:42.267Z,53.07
2018-09-27T02:30:08.220Z,53.53
2018-09-27T02:32:34.178Z,52.92
2018-09-27T02:35:00.136Z,52.98
2018-09-27T02:37:26.080Z,52.94
2018-09-27T02:39:52.027Z,53.28
2018-09-27T02:42:17.980Z,53.03
2018-09-27T02:44:43.920Z,53.03
2018-09-27T02:47:09.883Z,53.97
2018-09-27T02:49:36.090Z,53.17
2018-09-27T02:52:02.049Z,53.37
2018-09-27T02:54:27.983Z,53.72
2018-09-27T02:56:53.929Z,54.09
2018-09-27T02:59:19.875Z,53.11
2018-09-27T03:01:45.840Z,53.66
2018-09-27T03:04:11.792Z,53.68
2018-09-27T03:06:37.759Z,53.50
2018-09-27T03:09:03.724Z,52.72
2018-09-27T03:11:29.744Z,53.87
2018-09-27T03:13:55.775Z,53.19
2018-09-27T03:16:21.652Z,52.43
2018-09-27T03:18:47.601Z,52.64
2018-09-27T03:21:13.576Z,52.55
2018-09-27T03:23:39.519Z,53.23
2018-09-27T03:26:05.492Z,53.22
2018-09-27T03:28:31.440Z,53.21
2018-09-27T03:30:57.441Z,53.17
2018-09-27T03:33:23.363Z,53.32
2018-09-27T03:35:49.317Z,52.72
2018-09-27T03:38:15.344Z,52.74
2018-09-27T03:40:41.319Z,53.19
2018-09-27T03:43:07.243Z,53.32
2018-09-27T03:45:33.242Z,53.35
2018-09-27T03:47:59.179Z,52.91
2018-09-27T03:50:25.132Z,53.53
2018-09-27T03:52:51.112Z,52.85
2018-09-27T03:55:17.066Z,52.55
2018-09-27T03:57:43.026Z,52.68
2018-09-27T04:00:08.992Z,53.23
2018-09-27T04:02:35.076Z,53.41
2018-09-27T04:05:01.029Z,52.84
2018-09-27T04:07:26.984Z,53.48
2018-09-27T04:09:52.956Z,52.57
2018-09-27T04:12:18.930Z,52.63
2018-09-27T04:14:44.868Z,53.02
2018-09-27T04:17:10.837Z,53.07
2018-09-27T04:19:36.783Z,52.54
2018-09-27T04:22:02.848Z,53.32
2018-09-27T04:24:28.788Z,53.43
2018-09-27T04:26:54.744Z,53.39
2018-09-27T04:29:20.698Z,52.93
2018-09-27T04:31:46.906Z,52.94
2018-09-27T04:34:12.875Z,53.06
2018-09-27T04:36:38.827Z,53.16
2018-09-27T04:39:04.797Z,52.46
2018-09-27T04:41:30.755Z,52.85
2018-09-27T04:43:56.717Z,52.96
2018-09-27T04:46:22.682Z,52.67
2018-09-27T04:48:48.650Z,53.48
2018-09-27T04:51:14.591Z,53.64
2018-09-27T04:53:40.576Z,53.68
2018-09-27T04:56:06.592Z,53.19
2018-09-27T04:58:32.539Z,53.54
2018-09-27T05:00:58.496Z,52.80
2018-09-27T05:03:24.446Z,53.08
2018-09-27T05:05:50.408Z,53.52
2018-09-27T05:08:16.348Z,53.11
2018-09-27T05:10:42.307Z,52.34
2018-09-27T05:13:08.264Z,53.26
2018-09-27T05:15:34.257Z,53.57
2018-09-27T05:18:00.173Z,53.09
2018-09-27T05:20:26.164Z,52.79
2018-09-27T05:22:52.093Z,52.28
2018-09-27T05:25:18.045Z,53.06
2018-09-27T05:27:44.071Z,53.37
2018-09-27T05:30:09.984Z,52.63
2018-09-27T05:32:35.942Z,53.25
2018-09-27T05:35:01.884Z,52.34
2018-09-27T05:37:27.840Z,52.43
2018-09-27T05:39:53.779Z,52.76
2018-09-27T05:42:19.792Z,53.01
2018-09-27T05:44:45.744Z,52.32
2018-09-27T05:47:11.691Z,52.68
2018-09-27T05:49:38.368Z,53.01
2018-09-27T05:52:04.396Z,52.91
2018-09-27T05:54:30.351Z,52.97
2018-09-27T05:56:56.349Z,53.05
2018-09-27T05:59:22.281Z,52.27
2018-09-27T06:01:48.348Z,52.80
2018-09-27T06:04:14.284Z,53.07
2018-09-27T06:06:40.253Z,53.03
2018-09-27T06:09:06.202Z,53.48
2018-09-27T06:11:32.316Z,53.01
2018-09-27T06:13:58.258Z,52.69
2018-09-27T06:16:24.268Z,52.50
2018-09-27T06:18:50.219Z,52.97
2018-09-27T06:21:16.166Z,53.29
2018-09-27T06:23:42.152Z,53.03
2018-09-27T06:26:08.154Z,53.21
2018-09-27T06:28:34.040Z,52.10
2018-09-27T06:30:59.996Z,53.30
2018-09-27T06:33:26.000Z,52.68
2018-09-27T06:35:51.917Z,52.73
2018-09-27T06:38:17.876Z,52.62
2018-09-27T06:40:43.851Z,51.76
2018-09-27T06:43:09.790Z,52.49
2018-09-27T06:45:35.739Z,52.60
2018-09-27T06:48:01.703Z,52.40
2018-09-27T06:50:27.703Z,52.75
2018-09-27T06:52:53.651Z,52.62
2018-09-27T06:55:19.762Z,52.35
2018-09-27T06:57:45.559Z,52.65
2018-09-27T07:00:11.552Z,52.38
2018-09-27T07:02:37.579Z,52.86
2018-09-27T07:05:03.582Z,53.51
2018-09-27T07:07:29.481Z,52.52
2018-09-27T07:09:55.423Z,52.90
2018-09-27T07:12:21.527Z,52.84
2018-09-27T07:14:47.378Z,52.62
2018-09-27T07:17:13.381Z,52.83
2018-09-27T07:19:39.329Z,53.56
2018-09-27T07:22:05.275Z,53.18
2018-09-27T07:24:31.237Z,52.42
2018-09-27T07:26:57.265Z,52.76
2018-09-27T07:29:23.147Z,52.50
2018-09-27T07:31:49.094Z,52.69
2018-09-27T07:34:15.036Z,52.79
2018-09-27T07:36:41.046Z,52.91
2018-09-27T07:39:06.949Z,52.66
2018-09-27T07:41:32.926Z,53.00
2018-09-27T07:43:58.895Z,53.67
2018-09-27T07:46:24.836Z,52.86
2018-09-27T07:48:50.800Z,52.75
2018-09-27T07:51:16.747Z,53.19
2018-09-27T07:53:42.697Z,52.83
2018-09-27T07:56:08.647Z,53.60
2018-09-27T07:58:34.642Z,52.69
2018-09-27T08:01:00.590Z,53.64
2018-09-27T08:03:26.532Z,53.25
2018-09-27T08:05:52.531Z,52.72
2018-09-27T08:08:18.540Z,53.13
2018-09-27T08:10:44.513Z,52.94
2018-09-27T08:13:10.463Z,53.33
2018-09-27T08:15:36.433Z,53.69
2018-09-27T08:18:02.382Z,52.85
2018-09-27T08:20:28.409Z,53.07
2018-09-27T08:22:54.300Z,53.66
2018-09-27T08:25:20.287Z,53.55
2018-09-27T08:27:46.233Z,53.45
2018-09-27T08:30:12.284Z,53.68
2018-09-27T08:32:38.273Z,52.77
2018-09-27T08:35:04.213Z,53.06
2018-09-27T08:37:30.165Z,53.49
2018-09-27T08:39:56.107Z,53.18
2018-09-27T08:42:22.095Z,53.97
2018-09-27T08:44:48.150Z,52.78
2018-09-27T08:47:14.080Z,53.80
2018-09-27T08:49:40.036Z,53.82
2018-09-27T08:52:05.988Z,53.43
2018-09-27T08:54:31.951Z,53.56
2018-09-27T08:56:57.891Z,53.70
2018-09-27T08:59:23.853Z,53.34
2018-09-27T09:01:49.807Z,54.45
2018-09-27T09:04:15.752Z,53.98
2018-09-27T09:06:41.691Z,54.09
2018-09-27T09:09:07.676Z,54.38
2018-09-27T09:11:33.642Z,53.68
2018-09-27T09:13:59.621Z,53.60
2018-09-27T09:16:25.564Z,54.48
2018-09-27T09:18:51.588Z,53.77
2018-09-27T09:21:17.523Z,53.36
2018-09-27T09:23:43.478Z,53.87
2018-09-27T09:26:09.476Z,53.89
2018-09-27T09:28:35.408Z,53.71
2018-09-27T09:31:01.481Z,54.05
2018-09-27T09:33:27.464Z,54.00
2018-09-27T09:35:53.477Z,54.15
2018-09-27T09:38:19.465Z,54.53
2018-09-27T09:40:45.545Z,53.67
2018-09-27T09:43:11.481Z,53.57
2018-09-27T09:45:37.424Z,53.78
2018-09-27T09:48:03.501Z,54.00
2018-09-27T09:50:29.442Z,54.94
2018-09-27T09:52:55.399Z,54.18
2018-09-27T09:55:21.408Z,53.58
2018-09-27T09:57:47.387Z,53.96
2018-09-27T10:00:13.340Z,54.06
2018-09-27T10:02:39.362Z,53.94
2018-09-27T10:05:05.320Z,53.73
2018-09-27T10:07:31.293Z,54.15
2018-09-27T10:09:57.251Z,54.46
2018-09-27T10:12:23.260Z,54.32
2018-09-27T10:14:49.540Z,54.39
2018-09-27T10:17:15.515Z,53.01
2018-09-27T10:19:41.465Z,52.31
2018-09-27T10:22:07.429Z,51.97
2018-09-27T10:24:33.348Z,51.62
2018-09-27T10:26:59.459Z,51.85
2018-09-27T10:29:25.423Z,50.56
2018-09-27T10:31:51.371Z,50.57
2018-09-27T10:34:17.334Z,49.76
2018-09-27T10:36:43.276Z,51.55
2018-09-27T10:39:09.240Z,51.52
2018-09-27T10:41:35.191Z,51.32
2018-09-27T10:44:01.139Z,51.99
2018-09-27T10:46:27.084Z,52.12
2018-09-27T10:48:53.033Z,52.86
2018-09-27T10:51:19.072Z,52.34
2018-09-27T10:53:44.955Z,52.72
2018-09-27T10:56:10.923Z,52.48
2018-09-27T10:58:37.044Z,52.16
2018-09-27T11:01:02.996Z,52.45
2018-09-27T11:03:28.943Z,53.01
2018-09-27T11:05:54.899Z,52.16
2018-09-27T11:08:20.848Z,53.20
2018-09-27T11:10:46.816Z,54.05
2018-09-27T11:13:12.762Z,53.66
2018-09-27T11:15:38.711Z,53.82
2018-09-27T11:18:04.684Z,53.94
2018-09-27T11:20:30.658Z,53.91
2018-09-27T11:22:56.620Z,53.38
2018-09-27T11:25:22.567Z,53.59
2018-09-27T11:27:48.531Z,54.38
2018-09-27T11:30:14.508Z,53.73
2018-09-27T11:32:40.477Z,54.10
2018-09-27T11:35:06.521Z,53.98
2018-09-27T11:37:32.455Z,53.58
2018-09-27T11:39:58.416Z,53.36
2018-09-27T11:42:24.415Z,53.81
2018-09-27T11:44:50.316Z,53.98
2018-09-27T11:47:16.268Z,54.66
2018-09-27T11:49:42.416Z,54.15
2018-09-27T11:52:08.170Z,54.32
2018-09-27T11:54:34.163Z,54.04
2018-09-27T11:57:00.112Z,54.32
2018-09-27T11:59:26.071Z,54.47
2018-09-27T12:01:52.055Z,53.87
2018-09-27T12:04:17.999Z,54.81
2018-09-27T12:06:44.068Z,54.74
2018-09-27T12:09:09.939Z,54.54
2018-09-27T12:11:35.905Z,53.71
2018-09-27T12:14:01.868Z,55.35
2018-09-27T12:16:27.842Z,55.35
2018-09-27T12:18:53.802Z,53.58
2018-09-27T12:21:19.842Z,54.33
2018-09-27T12:23:46.089Z,53.91
2018-09-27T12:26:12.037Z,54.03
2018-09-27T12:28:38.061Z,53.54
2018-09-27T12:31:04.000Z,52.79
2018-09-27T12:33:29.935Z,55.07
2018-09-27T12:35:55.898Z,54.05
2018-09-27T12:38:21.934Z,53.40
2018-09-27T12:40:47.860Z,54.21
2018-09-27T12:43:13.816Z,53.98
2018-09-27T12:45:39.858Z,53.40
2018-09-27T12:48:05.816Z,53.33
2018-09-27T12:50:31.766Z,53.05
2018-09-27T12:52:57.689Z,54.41
2018-09-27T12:55:23.638Z,53.65
2018-09-27T12:57:49.687Z,53.76
2018-09-27T13:00:15.706Z,55.56
2018-09-27T13:02:42.020Z,54.79
2018-09-27T13:05:07.868Z,54.44
2018-09-27T13:07:33.868Z,53.88
2018-09-27T13:10:00.009Z,54.85
2018-09-27T13:12:25.847Z,54.65
2018-09-27T13:14:51.795Z,54.54
2018-09-27T13:17:17.746Z,54.63
2018-09-27T13:19:43.691Z,54.70
2018-09-27T13:22:09.648Z,54.34
2018-09-27T13:24:35.684Z,53.45
2018-09-27T13:27:01.736Z,54.91
2018-09-27T13:29:27.674Z,54.91
2018-09-27T13:31:53.691Z,55.09
2018-09-27T13:34:19.759Z,54.56
2018-09-27T13:36:45.707Z,55.45
2018-09-27T13:39:11.729Z,55.46
2018-09-27T13:41:37.653Z,54.40
2018-09-27T13:44:03.645Z,54.52
2018-09-27T13:46:29.658Z,55.26
2018-09-27T13:48:55.575Z,54.80
2018-09-27T13:51:21.593Z,54.35
2018-09-27T13:53:47.569Z,55.26
2018-09-27T13:56:13.520Z,54.78
2018-09-27T13:58:39.492Z,53.75
2018-09-27T14:01:05.479Z,53.68
2018-09-27T14:03:31.400Z,54.50
2018-09-27T14:05:57.443Z,54.21
2018-09-27T14:08:23.388Z,54.69
2018-09-27T14:10:49.360Z,54.28
2018-09-27T14:13:15.468Z,54.73
2018-09-27T14:15:41.416Z,53.53
2018-09-27T14:18:07.368Z,54.30
2018-09-27T14:20:33.531Z,54.91
2018-09-27T14:22:59.504Z,55.13
2018-09-27T14:25:25.449Z,55.54
2018-09-27T14:27:51.427Z,54.77
2018-09-27T14:30:17.443Z,54.94
2018-09-27T14:32:43.408Z,55.69
2018-09-27T14:35:09.348Z,55.26
2018-09-27T14:37:35.399Z,54.17
2018-09-27T14:40:01.343Z,54.79
2018-09-27T14:42:27.376Z,53.57
2018-09-27T14:44:53.369Z,54.13
2018-09-27T14:47:19.308Z,54.14
2018-09-27T14:49:45.275Z,54.12
2018-09-27T14:52:11.212Z,53.59
2018-09-27T14:54:37.171Z,53.95
2018-09-27T14:57:03.149Z,54.20
2018-09-27T14:59:29.330Z,52.73
2018-09-27T15:01:55.834Z,54.41
2018-09-27T15:04:21.803Z,54.11
2018-09-27T15:06:47.824Z,54.75
2018-09-27T15:09:13.746Z,54.42
2018-09-27T15:11:39.683Z,54.45
2018-09-27T15:14:05.638Z,55.03
2018-09-27T15:16:31.623Z,55.42
2018-09-27T15:18:57.584Z,54.43
2018-09-27T15:21:23.540Z,54.50
2018-09-27T15:23:49.479Z,54.81
2018-09-27T15:26:15.777Z,53.32
2018-09-27T15:28:41.767Z,53.26
2018-09-27T15:31:07.719Z,54.29
2018-09-27T15:33:33.672Z,54.45
2018-09-27T15:36:00.033Z,53.63
2018-09-27T15:38:25.989Z,54.22
2018-09-27T15:40:51.941Z,54.79
2018-09-27T15:43:17.932Z,55.09
2018-09-27T15:45:43.888Z,55.16
2018-09-27T15:48:09.824Z,55.11
2018-09-27T15:50:35.788Z,54.90
2018-09-27T15:53:01.737Z,55.55
2018-09-27T15:55:27.688Z,55.64
2018-09-27T15:57:53.637Z,56.00
2018-09-27T16:00:19.645Z,54.93
2018-09-27T16:02:45.608Z,55.62
2018-09-27T16:05:11.644Z,55.75
2018-09-27T16:07:37.865Z,55.16
2018-09-27T16:10:03.864Z,54.78
2018-09-27T16:12:29.809Z,54.88
2018-09-27T16:14:55.957Z,53.99
2018-09-27T16:17:21.845Z,54.92
2018-09-27T16:19:47.821Z,54.79
2018-09-27T16:22:17.441Z,54.30
2018-09-27T16:24:44.615Z,54.51
2018-09-27T16:27:10.565Z,55.41
2018-09-27T16:29:36.607Z,55.76
2018-09-27T16:32:02.487Z,55.49
2018-09-27T16:34:28.452Z,55.56
2018-09-27T16:36:54.396Z,55.61
2018-09-27T16:39:20.423Z,55.50
2018-09-27T16:41:46.369Z,54.90
2018-09-27T16:44:12.422Z,55.58
2018-09-27T16:46:38.371Z,55.84
2018-09-27T16:49:04.407Z,55.85
2018-09-27T16:51:30.264Z,56.26
2018-09-27T16:53:56.270Z,55.69
2018-09-27T16:56:22.239Z,54.50
2018-09-27T16:58:48.211Z,55.07
2018-09-27T17:01:14.156Z,55.29
2018-09-27T17:03:40.121Z,55.24
2018-09-27T17:06:06.102Z,54.80
2018-09-27T17:08:32.605Z,54.82
2018-09-27T17:10:59.631Z,54.74
2018-09-27T17:13:25.694Z,55.85
2018-09-27T17:15:51.689Z,55.78
2018-09-27T17:18:17.640Z,55.68
2018-09-27T17:20:43.637Z,55.09
2018-09-27T17:23:09.581Z,55.67
2018-09-27T17:25:35.541Z,55.22
2018-09-27T17:28:01.676Z,55.84
2018-09-27T17:30:27.724Z,55.99
2018-09-27T17:32:53.668Z,55.30
2018-09-27T17:35:19.630Z,54.80
2018-09-27T17:37:45.591Z,55.50
2018-09-27T17:40:11.594Z,55.73
2018-09-27T17:42:37.500Z,54.73
2018-09-27T17:45:03.452Z,54.82
2018-09-27T17:47:29.416Z,54.44
2018-09-27T17:49:55.358Z,54.99
2018-09-27T17:52:21.325Z,54.13
2018-09-27T17:54:47.299Z,54.79
2018-09-27T17:57:13.259Z,54.96
2018-09-27T17:59:39.249Z,54.99
2018-09-27T18:02:05.202Z,55.54
2018-09-27T18:04:31.211Z,54.78
2018-09-27T18:06:57.131Z,55.17
2018-09-27T18:09:23.125Z,55.12
2018-09-27T18:11:49.106Z,55.44
2018-09-27T18:14:15.044Z,55.06
2018-09-27T18:16:41.053Z,54.86
2018-09-27T18:19:06.960Z,55.83
2018-09-27T18:21:32.937Z,55.27
2018-09-27T18:23:58.882Z,56.00
2018-09-27T18:26:24.845Z,54.91
2018-09-27T18:28:50.797Z,55.05
2018-09-27T18:31:16.806Z,54.74
2018-09-27T18:33:42.703Z,55.20
2018-09-27T18:36:08.664Z,54.94
2018-09-27T18:38:34.667Z,54.61
2018-09-27T18:41:00.609Z,55.69
2018-09-27T18:43:26.597Z,54.93
2018-09-27T18:45:52.560Z,55.07
2018-09-27T18:48:18.539Z,55.47
2018-09-27T18:50:44.585Z,55.67
2018-09-27T18:53:10.536Z,55.45
2018-09-27T18:55:37.352Z,55.38
2018-09-27T18:58:03.382Z,54.49
2018-09-27T19:00:29.286Z,55.96
2018-09-27T19:02:55.477Z,55.45
2018-09-27T19:05:21.501Z,55.07
2018-09-27T19:07:47.461Z,55.87
2018-09-27T19:10:13.438Z,55.30
2018-09-27T19:12:39.376Z,55.32
2018-09-27T19:15:05.331Z,55.71
2018-09-27T19:17:31.324Z,55.44
2018-09-27T19:19:57.282Z,54.93
2018-09-27T19:22:23.250Z,55.15
2018-09-27T19:24:49.304Z,55.59
2018-09-27T19:27:15.213Z,54.78
2018-09-27T19:29:41.157Z,55.81
2018-09-27T19:32:07.104Z,55.04
2018-09-27T19:34:33.064Z,54.80
2018-09-27T19:36:59.036Z,55.37
2018-09-27T19:39:25.105Z,55.16
2018-09-27T19:41:51.000Z,55.06
2018-09-27T19:44:16.952Z,55.66
2018-09-27T19:46:42.956Z,55.35
2018-09-27T19:49:08.861Z,55.56
2018-09-27T19:51:34.820Z,55.56
2018-09-27T19:54:00.777Z,55.39
2018-09-27T19:56:26.723Z,55.13
2018-09-27T19:58:52.681Z,55.40
2018-09-27T20:01:18.637Z,55.11
2018-09-27T20:03:44.606Z,55.05
2018-09-27T20:06:10.580Z,54.95
2018-09-27T20:08:36.528Z,55.06
2018-09-27T20:11:02.549Z,54.76
2018-09-27T20:13:28.572Z,55.60
2018-09-27T20:15:54.547Z,54.84
2018-09-27T20:18:20.524Z,54.91
2018-09-27T20:20:46.464Z,54.83
2018-09-27T20:23:12.630Z,55.68
2018-09-27T20:25:38.669Z,54.65
2018-09-27T20:28:04.665Z,54.20
2018-09-27T20:30:30.825Z,52.94
2018-09-27T20:32:56.807Z,51.91
2018-09-27T20:35:22.767Z,51.67
2018-09-27T20:37:48.722Z,50.88
2018-09-27T20:40:14.778Z,50.17
2018-09-27T20:42:40.804Z,50.29
2018-09-27T20:45:06.824Z,49.23
2018-09-27T20:47:32.882Z,49.66
2018-09-27T20:49:58.816Z,49.59
2018-09-27T20:52:24.807Z,49.67
2018-09-27T20:54:50.765Z,49.22
2018-09-27T20:57:16.779Z,48.57
2018-09-27T20:59:42.741Z,49.36
2018-09-27T21:02:08.683Z,49.58
2018-09-27T21:04:34.636Z,49.42
2018-09-27T21:07:00.644Z,49.12
2018-09-27T21:09:26.586Z,48.76
2018-09-27T21:11:52.760Z,47.97
2018-09-27T21:14:18.783Z,48.13
2018-09-27T21:16:44.738Z,48.33
2018-09-27T21:19:10.688Z,48.77
2018-09-27T21:21:36.609Z,49.06
2018-09-27T21:24:02.555Z,48.89
2018-09-27T21:26:28.585Z,48.98
2018-09-27T21:28:54.480Z,48.94
2018-09-27T21:31:20.432Z,48.96
2018-09-27T21:33:46.396Z,48.05
2018-09-27T21:36:12.424Z,48.50
2018-09-27T21:38:38.441Z,49.26
2018-09-27T21:41:04.423Z,49.02
2018-09-27T21:43:30.372Z,48.78
2018-09-27T21:45:56.431Z,48.95
2018-09-27T21:48:22.455Z,48.38
2018-09-27T21:50:48.536Z,48.93
2018-09-27T21:53:14.524Z,49.20
2018-09-27T21:55:40.469Z,48.03
2018-09-27T21:58:06.541Z,48.46
2018-09-27T22:00:32.492Z,49.33
2018-09-27T22:02:58.464Z,48.56
2018-09-27T22:05:24.410Z,48.90
2018-09-27T22:07:50.377Z,49.28
2018-09-27T22:10:16.415Z,48.71
2018-09-27T22:12:42.384Z,49.27
2018-09-27T22:15:08.383Z,49.32
2018-09-27T22:17:34.364Z,48.56
2018-09-27T22:20:00.323Z,49.10
2018-09-27T22:22:26.356Z,48.59
2018-09-27T22:24:52.443Z,48.77
2018-09-27T22:27:18.395Z,48.47
2018-09-27T22:29:44.431Z,48.86
2018-09-27T22:32:10.432Z,49.42
2018-09-27T22:34:36.390Z,48.78
2018-09-27T22:37:02.330Z,48.78
2018-09-27T22:39:28.355Z,48.63
2018-09-27T22:41:54.316Z,48.86
2018-09-27T22:44:20.255Z,49.13
2018-09-27T22:46:46.283Z,48.83
2018-09-27T22:49:12.236Z,49.24
2018-09-27T22:51:38.196Z,49.03
2018-09-27T22:54:04.273Z,49.57
2018-09-27T22:56:30.208Z,49.93
2018-09-27T22:58:56.159Z,49.25
2018-09-27T23:01:22.104Z,50.31
2018-09-27T23:03:48.071Z,50.32
2018-09-27T23:06:14.043Z,50.16
2018-09-27T23:08:40.033Z,50.50
2018-09-27T23:11:05.996Z,50.31
2018-09-27T23:13:31.941Z,50.33
2018-09-27T23:15:57.907Z,50.44
2018-09-27T23:18:23.851Z,50.12
2018-09-27T23:20:49.810Z,51.03
2018-09-27T23:23:15.759Z,50.53
2018-09-27T23:25:41.728Z,50.95
2018-09-27T23:28:07.696Z,51.50
2018-09-27T23:30:33.639Z,51.30
2018-09-27T23:32:59.593Z,51.32
2018-09-27T23:35:25.548Z,51.33
2018-09-27T23:37:51.510Z,51.62
2018-09-27T23:40:17.468Z,52.15
2018-09-27T23:42:43.415Z,51.15
2018-09-27T23:45:09.368Z,51.50
2018-09-27T23:47:35.345Z,51.58
2018-09-27T23:50:01.285Z,51.29
2018-09-27T23:52:27.256Z,51.88
2018-09-27T23:54:53.300Z,51.99
2018-09-27T23:57:19.336Z,51.35
2018-09-27T23:59:45.285Z,51.50
